Time;durP1;ratioP1;P1;durP2;ratioP2;P2;SDS_P1;SDS_P2;PMS_P1;PMS_P2;Temp;Humidity;BMP_temperature;BMP_pressure;BME280_temperature;BME280_humidity;BME280_pressure;Samples;Min_cycle;Max_cycle;Signal;HPM_P1;HPM_P2
2022/06/17 00:00:53;;;;;;;2.97;2.77;;;;;;;;;;5070111;28;20399;-79
2022/06/17 00:03:21;;;;;;;3.20;2.90;;;;;;;;;;5067400;28;20308;-77
2022/06/17 00:05:50;;;;;;;3.87;3.30;;;;;;;;;;5066424;28;20636;-77
2022/06/17 00:08:20;;;;;;;4.00;3.00;;;;;;;;;;5058868;28;20289;-77
2022/06/17 00:10:47;;;;;;;4.07;2.77;;;;;;;;;;5069303;28;20323;-77
2022/06/17 00:13:16;;;;;;;2.80;2.60;;;;;;;;;;5074190;28;21190;-76
2022/06/17 00:15:45;;;;;;;2.90;2.43;;;;;;;;;;5062383;28;20301;-78
2022/06/17 00:18:13;;;;;;;3.93;2.60;;;;;;;;;;5068999;28;20224;-77
2022/06/17 00:20:41;;;;;;;2.60;2.40;;;;;;;;;;5045195;28;20225;-77
2022/06/17 00:23:16;;;;;;;2.50;2.30;;;;;;;;;;5049516;28;20256;-77
2022/06/17 00:25:45;;;;;;;4.23;2.37;;;;;;;;;;5072885;28;20240;-78
2022/06/17 00:28:13;;;;;;;2.77;2.57;;;;;;;;;;5075095;28;21070;-77
2022/06/17 00:30:41;;;;;;;3.43;2.50;;;;;;;;;;5070107;28;20232;-76
2022/06/17 00:33:09;;;;;;;2.70;2.50;;;;;;;;;;5063526;28;20261;-77
2022/06/17 00:35:38;;;;;;;2.80;2.60;;;;;;;;;;5065608;28;20207;-76
2022/06/17 00:38:06;;;;;;;2.70;2.50;;;;;;;;;;5060702;28;20331;-76
2022/06/17 00:40:35;;;;;;;3.03;2.70;;;;;;;;;;5066113;28;20663;-76
2022/06/17 00:43:04;;;;;;;4.03;2.60;;;;;;;;;;5073362;28;20252;-78
2022/06/17 00:45:40;;;;;;;3.40;2.50;;;;;;;;;;5067411;28;20228;-77
2022/06/17 00:48:24;;;;;;;3.23;2.50;;;;;;;;;;5064628;28;20228;-77
2022/06/17 00:51:10;;;;;;;2.90;2.70;;;;;;;;;;5058900;28;20277;-77
2022/06/17 00:54:03;;;;;;;2.67;2.33;;;;;;;;;;5044423;28;20311;-76
2022/06/17 00:56:35;;;;;;;3.60;2.63;;;;;;;;;;5061710;28;20296;-76
2022/06/17 00:59:02;;;;;;;2.53;2.33;;;;;;;;;;5062573;28;20236;-77
2022/06/17 01:01:33;;;;;;;3.00;2.70;;;;;;;;;;5065379;28;20235;-76
2022/06/17 01:04:02;;;;;;;4.57;3.00;;;;;;;;;;5060480;28;20244;-77
2022/06/17 01:06:32;;;;;;;4.87;2.97;;;;;;;;;;5067323;28;20327;-75
2022/06/17 01:11:49;;;;;;;4.43;3.40;;;;;;;;;;5068070;28;20241;-77
2022/06/17 01:14:17;;;;;;;3.47;3.17;;;;;;;;;;5067681;28;20978;-76
2022/06/17 01:16:44;;;;;;;2.80;2.60;;;;;;;;;;5066339;28;20213;-77
2022/06/17 01:19:30;;;;;;;2.90;2.67;;;;;;;;;;5070558;28;20692;-76
2022/06/17 01:22:18;;;;;;;2.73;2.57;;;;;;;;;;5034064;28;20422;-77
2022/06/17 01:24:46;;;;;;;2.93;2.30;;;;;;;;;;5012632;28;20304;-77
2022/06/17 01:27:16;;;;;;;2.70;2.50;;;;;;;;;;5060232;28;20335;-76
2022/06/17 01:29:43;;;;;;;3.00;2.70;;;;;;;;;;5062155;28;20221;-79
2022/06/17 01:32:11;;;;;;;3.00;2.70;;;;;;;;;;5064378;28;20228;-76
2022/06/17 01:34:39;;;;;;;2.67;2.47;;;;;;;;;;5065465;28;20212;-77
2022/06/17 01:37:07;;;;;;;5.57;3.00;;;;;;;;;;5064151;28;20217;-76
2022/06/17 01:39:35;;;;;;;3.00;2.70;;;;;;;;;;5063745;28;20200;-76
2022/06/17 01:42:03;;;;;;;2.97;2.30;;;;;;;;;;5058306;28;20316;-77
2022/06/17 01:44:33;;;;;;;4.67;2.57;;;;;;;;;;5060440;28;20329;-77
2022/06/17 01:47:02;;;;;;;5.07;2.90;;;;;;;;;;5060219;28;20205;-76
2022/06/17 01:49:47;;;;;;;3.17;2.87;;;;;;;;;;5066418;28;20205;-79
2022/06/17 01:52:28;;;;;;;3.80;2.70;;;;;;;;;;5064647;28;20319;-77
2022/06/17 01:55:09;;;;;;;3.33;2.40;;;;;;;;;;5057730;28;20223;-77
2022/06/17 01:57:43;;;;;;;5.23;2.80;;;;;;;;;;5071724;28;22120;-77
2022/06/17 02:00:15;;;;;;;3.07;2.77;;;;;;;;;;5065682;28;20648;-77
2022/06/17 02:02:44;;;;;;;5.87;3.97;;;;;;;;;;5059648;28;20313;-77
2022/06/17 02:05:11;;;;;;;4.00;3.53;;;;;;;;;;5054839;28;20296;-76
2022/06/17 02:07:39;;;;;;;5.43;3.80;;;;;;;;;;5067884;28;20229;-76
2022/06/17 02:10:06;;;;;;;5.47;3.90;;;;;;;;;;5055975;28;20256;-75
2022/06/17 02:12:34;;;;;;;3.63;3.30;;;;;;;;;;5069797;28;20359;-77
2022/06/17 02:15:02;;;;;;;3.40;3.10;;;;;;;;;;5068274;28;20670;-77
2022/06/17 02:17:32;;;;;;;3.90;3.10;;;;;;;;;;5067695;28;20309;-77
2022/06/17 02:19:59;;;;;;;4.20;3.10;;;;;;;;;;5055404;28;20291;-76
2022/06/17 02:22:30;;;;;;;4.70;3.10;;;;;;;;;;5060151;28;20399;-76
2022/06/17 02:24:58;;;;;;;4.73;2.90;;;;;;;;;;5059809;28;20296;-77
2022/06/17 02:27:26;;;;;;;2.93;2.60;;;;;;;;;;5060462;28;20321;-77
2022/06/17 02:29:54;;;;;;;2.70;2.50;;;;;;;;;;5064033;28;20786;-76
2022/06/17 02:32:21;;;;;;;3.00;2.70;;;;;;;;;;5063486;28;20785;-76
2022/06/17 02:34:48;;;;;;;2.60;2.40;;;;;;;;;;5064997;28;20303;-77
2022/06/17 02:37:17;;;;;;;2.60;2.40;;;;;;;;;;5065942;28;20205;-76
2022/06/17 02:39:47;;;;;;;4.40;3.03;;;;;;;;;;5065307;28;20292;-76
2022/06/17 02:42:19;;;;;;;5.70;4.20;;;;;;;;;;5066118;28;20268;-77
2022/06/17 02:44:48;;;;;;;8.83;5.93;;;;;;;;;;5057970;28;20290;-76
2022/06/17 02:47:16;;;;;;;9.13;5.43;;;;;;;;;;5067949;28;20666;-77
2022/06/17 02:49:44;;;;;;;15.83;9.93;;;;;;;;;;5074881;28;20264;-76
2022/06/17 02:52:14;;;;;;;11.17;5.53;;;;;;;;;;5070610;28;20315;-78
2022/06/17 02:54:44;;;;;;;8.57;5.40;;;;;;;;;;5069381;28;20291;-77
2022/06/17 02:57:16;;;;;;;9.20;5.83;;;;;;;;;;5052356;28;20274;-77
2022/06/17 02:59:48;;;;;;;8.73;5.97;;;;;;;;;;5066133;28;20297;-77
2022/06/17 03:02:23;;;;;;;10.37;5.60;;;;;;;;;;5071789;28;20316;-78
2022/06/17 03:04:51;;;;;;;7.40;5.20;;;;;;;;;;5072712;28;20204;-76
2022/06/17 03:07:20;;;;;;;11.20;6.90;;;;;;;;;;5047924;28;20254;-77
2022/06/17 03:09:47;;;;;;;9.53;6.20;;;;;;;;;;5067856;28;20271;-75
2022/06/17 03:12:22;;;;;;;7.27;5.27;;;;;;;;;;5067448;28;20311;-77
2022/06/17 03:14:52;;;;;;;8.17;5.30;;;;;;;;;;5067816;28;20204;-76
2022/06/17 03:17:23;;;;;;;6.83;4.97;;;;;;;;;;5062745;28;20329;-77
2022/06/17 03:19:52;;;;;;;7.67;5.20;;;;;;;;;;5071196;28;20240;-77
2022/06/17 03:22:19;;;;;;;5.33;4.83;;;;;;;;;;5070954;28;20319;-77
2022/06/17 03:25:10;;;;;;;5.37;4.20;;;;;;;;;;5065696;28;20308;-77
2022/06/17 03:27:40;;;;;;;6.90;4.70;;;;;;;;;;5060758;28;20583;-77
2022/06/17 03:30:07;;;;;;;5.17;3.93;;;;;;;;;;5066960;28;20336;-76
2022/06/17 03:32:38;;;;;;;5.53;3.50;;;;;;;;;;5066187;28;20244;-79
2022/06/17 03:35:06;;;;;;;4.40;3.57;;;;;;;;;;5070350;28;20244;-77
2022/06/17 03:37:47;;;;;;;4.37;3.97;;;;;;;;;;5069554;28;20204;-78
2022/06/17 03:40:18;;;;;;;4.27;3.03;;;;;;;;;;5069975;28;20300;-76
2022/06/17 03:42:54;;;;;;;3.67;3.37;;;;;;;;;;5080226;28;20274;-77
2022/06/17 03:45:26;;;;;;;3.57;3.27;;;;;;;;;;5072312;28;20291;-76
2022/06/17 03:47:53;;;;;;;3.20;2.90;;;;;;;;;;5064275;28;20228;-77
2022/06/17 03:50:32;;;;;;;3.40;3.07;;;;;;;;;;5071272;28;20303;-76
2022/06/17 03:53:06;;;;;;;3.03;2.80;;;;;;;;;;5064629;28;20224;-77
2022/06/17 03:55:34;;;;;;;3.57;3.20;;;;;;;;;;5062837;28;20295;-78
2022/06/17 03:58:02;;;;;;;3.20;3.00;;;;;;;;;;5067791;28;20723;-76
2022/06/17 04:00:37;;;;;;;2.80;2.60;;;;;;;;;;5070128;28;20197;-78
2022/06/17 04:03:07;;;;;;;6.33;3.63;;;;;;;;;;5068915;28;20225;-76
2022/06/17 04:05:34;;;;;;;3.37;3.07;;;;;;;;;;5064830;28;20287;-77
2022/06/17 04:08:01;;;;;;;3.70;3.40;;;;;;;;;;5052663;28;20331;-77
2022/06/17 04:10:30;;;;;;;4.80;3.93;;;;;;;;;;5066242;28;22034;-77
2022/06/17 04:12:58;;;;;;;4.20;3.80;;;;;;;;;;5064507;28;20320;-77
2022/06/17 04:15:43;;;;;;;4.70;3.70;;;;;;;;;;5061182;28;20236;-75
2022/06/17 04:18:11;;;;;;;3.93;3.63;;;;;;;;;;5055213;28;20313;-78
2022/06/17 04:20:41;;;;;;;5.67;4.33;;;;;;;;;;5054246;28;20233;-77
2022/06/17 04:23:11;;;;;;;3.67;3.37;;;;;;;;;;5073192;28;20315;-76
2022/06/17 04:25:45;;;;;;;3.50;3.20;;;;;;;;;;5072345;28;20242;-77
2022/06/17 04:28:16;;;;;;;3.90;3.50;;;;;;;;;;5065774;28;20319;-76
2022/06/17 04:30:45;;;;;;;9.67;5.87;;;;;;;;;;5064658;28;20210;-76
2022/06/17 04:33:15;;;;;;;4.97;3.20;;;;;;;;;;5044065;28;20239;-78
2022/06/17 04:35:42;;;;;;;6.90;3.60;;;;;;;;;;5073219;28;20236;-76
2022/06/17 04:38:09;;;;;;;6.27;3.13;;;;;;;;;;5069852;28;20198;-78
2022/06/17 04:40:39;;;;;;;4.73;3.20;;;;;;;;;;5052753;28;20229;-76
2022/06/17 04:43:14;;;;;;;3.43;3.00;;;;;;;;;;5064819;28;20323;-76
2022/06/17 04:45:53;;;;;;;3.30;3.00;;;;;;;;;;5071689;28;20369;-77
2022/06/17 04:48:20;;;;;;;3.43;3.13;;;;;;;;;;5066325;28;20208;-76
2022/06/17 04:50:47;;;;;;;3.13;2.70;;;;;;;;;;5068892;28;20292;-77
2022/06/17 04:53:16;;;;;;;3.50;3.20;;;;;;;;;;5061672;28;20311;-77
2022/06/17 04:55:44;;;;;;;4.30;3.23;;;;;;;;;;5063843;28;20730;-77
2022/06/17 04:58:16;;;;;;;3.40;3.10;;;;;;;;;;5058007;28;20290;-77
2022/06/17 05:00:45;;;;;;;4.17;3.03;;;;;;;;;;5057703;28;20296;-76
2022/06/17 05:03:12;;;;;;;3.43;3.13;;;;;;;;;;5056550;28;20957;-78
2022/06/17 05:05:43;;;;;;;3.90;3.50;;;;;;;;;;5069535;28;20303;-76
2022/06/17 05:08:18;;;;;;;3.37;3.00;;;;;;;;;;5067926;28;20208;-76
2022/06/17 05:10:48;;;;;;;3.00;2.70;;;;;;;;;;5057193;28;20211;-75
2022/06/17 05:13:18;;;;;;;4.57;2.70;;;;;;;;;;5069534;28;20668;-78
2022/06/17 05:15:46;;;;;;;3.27;2.30;;;;;;;;;;5061358;28;20284;-75
2022/06/17 05:18:13;;;;;;;4.30;2.73;;;;;;;;;;5074240;28;20225;-75
2022/06/17 05:20:42;;;;;;;3.97;2.70;;;;;;;;;;5057644;28;20292;-76
2022/06/17 05:23:11;;;;;;;3.73;2.73;;;;;;;;;;5067932;28;20236;-77
2022/06/17 05:25:41;;;;;;;3.30;2.70;;;;;;;;;;5063293;28;20403;-76
2022/06/17 05:28:11;;;;;;;2.85;2.30;;;;;;;;;;5073917;28;20328;-77
2022/06/17 05:30:39;;;;;;;3.90;2.00;;;;;;;;;;5072990;28;20656;-78
2022/06/17 05:33:06;;;;;;;2.53;2.10;;;;;;;;;;5072253;28;20308;-76
2022/06/17 05:35:34;;;;;;;2.28;2.00;;;;;;;;;;5030886;28;1127808;-77
2022/06/17 05:38:01;;;;;;;3.28;1.98;;;;;;;;;;5072902;28;20314;-76
2022/06/17 05:40:28;;;;;;;4.70;2.05;;;;;;;;;;5055958;28;20750;-79
2022/06/17 05:42:55;;;;;;;2.03;1.90;;;;;;;;;;5074283;28;20319;-77
2022/06/17 05:45:24;;;;;;;1.75;1.65;;;;;;;;;;5073046;28;20221;-78
2022/06/17 05:47:52;;;;;;;2.53;1.88;;;;;;;;;;5057817;28;20208;-76
2022/06/17 05:50:21;;;;;;;2.20;1.98;;;;;;;;;;5075964;28;20200;-80
2022/06/17 05:52:48;;;;;;;2.15;1.70;;;;;;;;;;5074364;28;20756;-76
2022/06/17 05:55:16;;;;;;;2.72;1.83;;;;;;;;;;5069061;28;20216;-78
2022/06/17 05:57:43;;;;;;;2.17;1.95;;;;;;;;;;5068314;28;20483;-76
2022/06/17 06:00:11;;;;;;;5.20;1.92;;;;;;;;;;5066668;28;20204;-78
2022/06/17 06:02:38;;;;;;;3.28;2.13;;;;;;;;;;5069216;28;20713;-77
2022/06/17 06:05:06;;;;;;;2.20;1.75;;;;;;;;;;5073945;28;20642;-77
2022/06/17 06:07:34;;;;;;;2.67;2.05;;;;;;;;;;5070497;28;20880;-78
2022/06/17 06:10:01;;;;;;;2.90;2.15;;;;;;;;;;5077745;28;20723;-77
2022/06/17 06:12:53;;;;;;;3.92;2.03;;;;;;;;;;5075188;28;20224;-77
2022/06/17 06:15:16;;;;;;;2.63;1.77;;;;;;;;;;5066711;28;20255;-76
2022/06/17 06:17:46;;;;;;;2.40;1.98;;;;;;;;;;5070999;28;22219;-76
2022/06/17 06:20:14;;;;;;;2.78;2.10;;;;;;;;;;5064809;28;20280;-76
2022/06/17 06:22:41;;;;;;;2.50;2.30;;;;;;;;;;5074547;28;20240;-76
2022/06/17 06:25:10;;;;;;;4.40;2.47;;;;;;;;;;5075437;28;20295;-76
2022/06/17 06:27:37;;;;;;;2.45;2.22;;;;;;;;;;5074155;28;20281;-76
2022/06/17 06:30:05;;;;;;;3.28;2.53;;;;;;;;;;5068421;28;20422;-77
2022/06/17 06:32:32;;;;;;;3.28;2.60;;;;;;;;;;5076588;28;22237;-76
2022/06/17 06:34:59;;;;;;;2.80;2.60;;;;;;;;;;5065076;28;20240;-77
2022/06/17 06:37:27;;;;;;;2.53;2.33;;;;;;;;;;5049592;28;20333;-78
2022/06/17 06:39:54;;;;;;;2.78;2.58;;;;;;;;;;5070333;28;20656;-77
2022/06/17 06:42:21;;;;;;;3.28;2.47;;;;;;;;;;5076044;28;20315;-77
2022/06/17 06:44:49;;;;;;;2.40;2.20;;;;;;;;;;5073868;28;20331;-76
2022/06/17 06:47:16;;;;;;;3.55;2.35;;;;;;;;;;5067049;28;20976;-76
2022/06/17 06:49:44;;;;;;;2.78;2.58;;;;;;;;;;5077329;28;20207;-76
2022/06/17 06:52:11;;;;;;;2.58;2.30;;;;;;;;;;5069665;28;20317;-76
2022/06/17 06:54:39;;;;;;;4.22;3.00;;;;;;;;;;5078358;28;20212;-76
2022/06/17 06:57:06;;;;;;;2.60;2.40;;;;;;;;;;5069495;28;21283;-75
2022/06/17 06:59:53;;;;;;;2.80;2.42;;;;;;;;;;5067722;28;20197;-77
2022/06/17 07:02:21;;;;;;;2.83;2.20;;;;;;;;;;5064204;28;20252;-75
2022/06/17 07:04:48;;;;;;;3.30;2.72;;;;;;;;;;5037740;28;20295;-75
2022/06/17 07:07:16;;;;;;;3.58;2.53;;;;;;;;;;5067359;28;20311;-76
2022/06/17 07:09:43;;;;;;;2.55;2.35;;;;;;;;;;5067604;28;20212;-77
2022/06/17 07:12:11;;;;;;;21.90;17.30;;;;;;;;;;5075259;28;20235;-76
2022/06/17 07:14:39;;;;;;;2.90;2.70;;;;;;;;;;5071126;28;20601;-77
2022/06/17 07:17:06;;;;;;;3.13;2.45;;;;;;;;;;5071949;28;20293;-77
2022/06/17 07:19:33;;;;;;;3.10;2.80;;;;;;;;;;5067800;28;20324;-76
2022/06/17 07:22:00;;;;;;;2.50;2.30;;;;;;;;;;5069082;28;20790;-75
2022/06/17 07:24:28;;;;;;;4.53;2.60;;;;;;;;;;5071873;28;20670;-76
2022/06/17 07:26:55;;;;;;;2.35;2.15;;;;;;;;;;5068768;28;20232;-77
2022/06/17 07:29:22;;;;;;;3.03;2.20;;;;;;;;;;5074950;28;20233;-76
2022/06/17 07:31:49;;;;;;;3.92;2.30;;;;;;;;;;5068061;28;20211;-76
2022/06/17 07:34:17;;;;;;;3.88;2.50;;;;;;;;;;5068636;28;20305;-77
2022/06/17 07:42:15;;;;;;;2.88;2.60;;;;;;;;;;5066613;28;20976;-78
2022/06/17 07:44:44;;;;;;;4.07;2.60;;;;;;;;;;5065327;28;20205;-78
2022/06/17 07:47:15;;;;;;;3.35;2.40;;;;;;;;;;5068749;28;20211;-78
2022/06/17 07:49:43;;;;;;;3.47;2.38;;;;;;;;;;5050598;28;20807;-77
2022/06/17 07:52:10;;;;;;;4.63;3.22;;;;;;;;;;5067657;28;20650;-78
2022/06/17 07:54:39;;;;;;;3.05;2.75;;;;;;;;;;5069052;28;20211;-77
2022/06/17 07:57:06;;;;;;;9.95;3.88;;;;;;;;;;5072647;28;20220;-78
2022/06/17 07:59:33;;;;;;;25.52;4.88;;;;;;;;;;5067378;28;20291;-77
2022/06/17 08:02:01;;;;;;;4.13;2.42;;;;;;;;;;5068812;28;20320;-78
2022/06/17 08:04:28;;;;;;;6.35;2.70;;;;;;;;;;5058188;28;20212;-77
2022/06/17 08:06:55;;;;;;;2.78;2.25;;;;;;;;;;5062178;28;20747;-78
2022/06/17 08:09:28;;;;;;;2.58;2.28;;;;;;;;;;5047128;28;20211;-76
2022/06/17 08:11:56;;;;;;;3.13;2.60;;;;;;;;;;5069085;28;20263;-76
2022/06/17 08:14:23;;;;;;;7.10;2.47;;;;;;;;;;5072663;28;20229;-74
2022/06/17 08:16:52;;;;;;;8.90;2.60;;;;;;;;;;5068594;28;20220;-74
2022/06/17 08:19:20;;;;;;;2.85;2.30;;;;;;;;;;5067476;28;20193;-74
2022/06/17 08:21:47;;;;;;;2.80;2.50;;;;;;;;;;5067400;28;20877;-75
2022/06/17 08:24:29;;;;;;;2.35;2.03;;;;;;;;;;5059154;28;20626;-75
2022/06/17 08:26:57;;;;;;;2.55;2.28;;;;;;;;;;5075599;28;20200;-73
2022/06/17 08:29:26;;;;;;;3.92;2.42;;;;;;;;;;5081871;28;20221;-72
2022/06/17 08:34:59;;;;;;;3.67;2.15;;;;;;;;;;5064577;28;20209;-75
2022/06/17 08:37:26;;;;;;;3.22;2.67;;;;;;;;;;5060751;28;20220;-75
2022/06/17 08:39:54;;;;;;;2.65;2.38;;;;;;;;;;5044943;28;21008;-75
2022/06/17 08:42:40;;;;;;;2.40;2.20;;;;;;;;;;5068329;28;20331;-74
2022/06/17 08:45:07;;;;;;;3.22;2.15;;;;;;;;;;5060882;28;20205;-75
2022/06/17 08:47:52;;;;;;;2.28;2.03;;;;;;;;;;5063522;28;21012;-73
2022/06/17 08:50:32;;;;;;;2.78;2.17;;;;;;;;;;5066410;28;20326;-75
2022/06/17 08:53:30;;;;;;;2.38;1.92;;;;;;;;;;5063824;28;20773;-73
2022/06/17 08:56:08;;;;;;;2.00;1.90;;;;;;;;;;5049356;28;20208;-76
2022/06/17 08:58:48;;;;;;;4.05;1.70;;;;;;;;;;5061103;28;20628;-74
2022/06/17 09:01:21;;;;;;;1.85;1.65;;;;;;;;;;5047625;28;20296;-75
2022/06/17 09:03:55;;;;;;;1.90;1.80;;;;;;;;;;5073378;28;20931;-75
2022/06/17 09:06:32;;;;;;;2.78;2.00;;;;;;;;;;5058972;28;20208;-74
2022/06/17 09:09:08;;;;;;;1.70;1.30;;;;;;;;;;5060857;28;20205;-76
2022/06/17 09:11:39;;;;;;;2.08;1.83;;;;;;;;;;5059982;28;20196;-75
2022/06/17 09:14:06;;;;;;;3.17;2.40;;;;;;;;;;5058107;28;20225;-71
2022/06/17 09:16:33;;;;;;;1.52;1.42;;;;;;;;;;5074282;28;20201;-76
2022/06/17 09:19:02;;;;;;;1.77;1.67;;;;;;;;;;5079079;28;20237;-75
2022/06/17 09:21:37;;;;;;;2.00;1.80;;;;;;;;;;5071108;28;20289;-75
2022/06/17 09:24:07;;;;;;;2.10;1.80;;;;;;;;;;5077193;28;20312;-75
2022/06/17 09:27:13;;;;;;;2.55;1.50;;;;;;;;;;5078659;28;20670;-75
2022/06/17 09:29:45;;;;;;;1.98;1.83;;;;;;;;;;5012318;28;20593;-73
2022/06/17 09:32:19;;;;;;;1.98;1.65;;;;;;;;;;5016462;28;20265;-75
2022/06/17 09:35:04;;;;;;;3.58;1.90;;;;;;;;;;5048995;28;20379;-76
2022/06/17 09:37:34;;;;;;;3.13;1.80;;;;;;;;;;5083743;28;20246;-74
2022/06/17 09:40:04;;;;;;;5.03;2.00;;;;;;;;;;5061008;28;20204;-75
2022/06/17 09:42:42;;;;;;;1.52;1.42;;;;;;;;;;5082538;28;20227;-75
2022/06/17 09:45:15;;;;;;;2.80;1.70;;;;;;;;;;5078289;28;20675;-73
2022/06/17 09:47:44;;;;;;;4.32;2.15;;;;;;;;;;5081319;28;20207;-77
2022/06/17 09:50:16;;;;;;;2.78;1.80;;;;;;;;;;5076598;28;20229;-76
2022/06/17 09:52:58;;;;;;;2.35;1.60;;;;;;;;;;5081690;28;20213;-75
2022/06/17 09:55:32;;;;;;;2.28;2.08;;;;;;;;;;5088200;28;20250;-74
2022/06/17 09:58:18;;;;;;;7.75;5.07;;;;;;;;;;5084807;28;20226;-75
2022/06/17 10:00:51;;;;;;;3.17;1.60;;;;;;;;;;5085193;28;20232;-74
2022/06/17 10:03:18;;;;;;;2.78;1.50;;;;;;;;;;5080995;28;20268;-74
2022/06/17 10:05:45;;;;;;;2.88;1.90;;;;;;;;;;5077439;28;20288;-75
2022/06/17 10:08:22;;;;;;;4.68;3.47;;;;;;;;;;5076726;28;20666;-75
2022/06/17 10:10:58;;;;;;;1.90;1.75;;;;;;;;;;5081363;28;20249;-74
2022/06/17 10:13:43;;;;;;;1.77;1.67;;;;;;;;;;5083856;28;20449;-75
2022/06/17 10:19:16;;;;;;;1.75;0.90;;;;;;;;;;5082356;28;20728;-75
2022/06/17 10:22:02;;;;;;;1.65;1.10;;;;;;;;;;5090074;28;20645;-76
2022/06/17 10:24:50;;;;;;;3.13;1.20;;;;;;;;;;5082060;28;20740;-75
2022/06/17 10:27:36;;;;;;;1.92;1.42;;;;;;;;;;5078198;28;20202;-75
2022/06/17 10:30:20;;;;;;;3.60;1.52;;;;;;;;;;5083242;28;20689;-76
2022/06/17 10:32:48;;;;;;;1.20;1.20;;;;;;;;;;5086591;28;20244;-76
2022/06/17 10:35:29;;;;;;;1.75;1.30;;;;;;;;;;5080330;28;20243;-76
2022/06/17 10:37:59;;;;;;;1.35;1.15;;;;;;;;;;5084090;28;20208;-76
2022/06/17 10:40:28;;;;;;;2.60;1.67;;;;;;;;;;5080045;28;20209;-75
2022/06/17 10:42:57;;;;;;;1.70;1.60;;;;;;;;;;5087316;28;20591;-76
2022/06/17 10:45:25;;;;;;;3.50;1.67;;;;;;;;;;5083543;28;20753;-77
2022/06/17 10:48:01;;;;;;;1.65;1.50;;;;;;;;;;5084149;28;20243;-76
2022/06/17 10:50:29;;;;;;;1.60;1.45;;;;;;;;;;5084643;28;20794;-75
2022/06/17 10:53:08;;;;;;;1.30;1.20;;;;;;;;;;5079041;28;20297;-76
2022/06/17 10:55:39;;;;;;;1.20;0.70;;;;;;;;;;5082031;28;20331;-75
2022/06/17 10:58:16;;;;;;;0.75;0.75;;;;;;;;;;5083567;28;20210;-74
2022/06/17 11:00:51;;;;;;;1.10;1.10;;;;;;;;;;5081497;28;20638;-76
2022/06/17 11:03:22;;;;;;;1.20;1.10;;;;;;;;;;5066336;28;20228;-77
2022/06/17 11:05:54;;;;;;;1.95;1.00;;;;;;;;;;5084622;28;20197;-74
2022/06/17 11:08:23;;;;;;;0.90;0.90;;;;;;;;;;5088568;28;20276;-75
2022/06/17 11:10:55;;;;;;;1.33;1.05;;;;;;;;;;5089521;28;20212;-75
2022/06/17 11:13:22;;;;;;;1.13;0.68;;;;;;;;;;5087438;28;20225;-74
2022/06/17 11:15:57;;;;;;;1.95;0.90;;;;;;;;;;5082958;28;20200;-76
2022/06/17 11:18:26;;;;;;;0.90;0.90;;;;;;;;;;5085523;28;20204;-74
2022/06/17 11:20:56;;;;;;;1.48;0.90;;;;;;;;;;5063563;28;20346;-75
2022/06/17 11:23:29;;;;;;;1.10;1.10;;;;;;;;;;5079510;28;20770;-74
2022/06/17 11:26:11;;;;;;;1.48;1.20;;;;;;;;;;5085288;28;20565;-74
2022/06/17 11:29:08;;;;;;;1.63;0.90;;;;;;;;;;5087432;28;20232;-75
2022/06/17 11:31:39;;;;;;;1.00;1.00;;;;;;;;;;5052816;28;20297;-76
2022/06/17 11:34:09;;;;;;;2.22;1.00;;;;;;;;;;5069293;28;20220;-74
2022/06/17 11:36:37;;;;;;;0.82;0.82;;;;;;;;;;5080520;28;20205;-76
2022/06/17 11:39:23;;;;;;;1.00;1.00;;;;;;;;;;5083983;28;20292;-74
2022/06/17 11:41:51;;;;;;;2.90;2.25;;;;;;;;;;5080363;28;20204;-75
2022/06/17 11:44:20;;;;;;;1.30;1.10;;;;;;;;;;5078398;28;20261;-74
2022/06/17 11:46:56;;;;;;;3.75;3.17;;;;;;;;;;5079067;28;20216;-73
2022/06/17 11:49:24;;;;;;;0.80;0.80;;;;;;;;;;5086478;28;20199;-76
2022/06/17 11:52:00;;;;;;;0.82;0.80;;;;;;;;;;5075749;28;20220;-75
2022/06/17 11:54:33;;;;;;;1.15;1.15;;;;;;;;;;5070782;28;20230;-75
2022/06/17 11:57:13;;;;;;;0.90;0.90;;;;;;;;;;5077495;28;20209;-76
2022/06/17 11:59:43;;;;;;;0.90;0.90;;;;;;;;;;5076332;28;20220;-75
2022/06/17 12:02:11;;;;;;;1.42;0.93;;;;;;;;;;5074866;28;20221;-74
2022/06/17 12:04:43;;;;;;;1.30;1.20;;;;;;;;;;5082837;28;20221;-76
2022/06/17 12:07:29;;;;;;;1.05;0.75;;;;;;;;;;5059717;28;20295;-75
2022/06/17 12:10:05;;;;;;;0.80;0.80;;;;;;;;;;5077552;28;20197;-75
2022/06/17 12:12:33;;;;;;;0.60;0.60;;;;;;;;;;5084619;28;20224;-75
2022/06/17 12:15:13;;;;;;;0.60;0.60;;;;;;;;;;5084943;28;20228;-76
2022/06/17 12:17:42;;;;;;;2.42;1.90;;;;;;;;;;5076702;28;20254;-76
2022/06/17 12:20:20;;;;;;;1.23;1.13;;;;;;;;;;5079421;28;20213;-74
2022/06/17 12:23:02;;;;;;;1.02;1.00;;;;;;;;;;5077009;28;20673;-75
2022/06/17 12:25:37;;;;;;;1.00;0.90;;;;;;;;;;5073918;28;20201;-75
2022/06/17 12:28:13;;;;;;;1.02;0.70;;;;;;;;;;5072013;28;20247;-74
2022/06/17 12:30:51;;;;;;;1.92;1.77;;;;;;;;;;5075858;28;20223;-76
2022/06/17 12:33:26;;;;;;;1.10;1.10;;;;;;;;;;5078540;28;20781;-76
2022/06/17 12:35:59;;;;;;;1.90;0.90;;;;;;;;;;5077636;28;20236;-75
2022/06/17 12:38:40;;;;;;;1.85;1.00;;;;;;;;;;5066125;28;20638;-74
2022/06/17 12:41:26;;;;;;;0.98;0.98;;;;;;;;;;5079981;28;20207;-75
2022/06/17 12:44:12;;;;;;;1.00;1.00;;;;;;;;;;5082280;28;20663;-73
2022/06/17 12:46:42;;;;;;;1.00;1.00;;;;;;;;;;5083018;28;20253;-74
2022/06/17 12:55:22;;;;;;;3.70;3.40;;;;;;;;;;5081960;28;20201;-74
2022/06/17 12:57:49;;;;;;;1.17;1.10;;;;;;;;;;5065533;28;20197;-75
2022/06/17 13:00:24;;;;;;;3.28;2.38;;;;;;;;;;5080649;28;20237;-73
2022/06/17 13:03:00;;;;;;;1.13;1.02;;;;;;;;;;5079506;28;20247;-76
2022/06/17 13:05:34;;;;;;;3.83;3.30;;;;;;;;;;5080829;28;20811;-76
2022/06/17 13:08:08;;;;;;;1.45;1.23;;;;;;;;;;5082639;28;20196;-77
2022/06/17 13:10:43;;;;;;;1.73;1.60;;;;;;;;;;5087130;28;20205;-73
2022/06/17 13:13:19;;;;;;;1.70;1.60;;;;;;;;;;5084356;28;20220;-75
2022/06/17 13:15:51;;;;;;;2.25;2.05;;;;;;;;;;5075766;28;20205;-75
2022/06/17 13:18:27;;;;;;;3.17;2.97;;;;;;;;;;5061864;28;20208;-74
2022/06/17 13:21:06;;;;;;;1.40;1.30;;;;;;;;;;5078211;28;20208;-75
2022/06/17 13:23:52;;;;;;;1.10;1.00;;;;;;;;;;5076101;28;20653;-75
2022/06/17 13:26:22;;;;;;;1.08;1.08;;;;;;;;;;5076477;28;20240;-73
2022/06/17 13:28:49;;;;;;;1.42;1.30;;;;;;;;;;5078387;28;20205;-73
2022/06/17 13:31:37;;;;;;;1.10;1.10;;;;;;;;;;5078235;28;20232;-75
2022/06/17 13:34:16;;;;;;;1.58;1.00;;;;;;;;;;5072253;28;20717;-75
2022/06/17 13:36:59;;;;;;;1.13;1.02;;;;;;;;;;5076514;28;20227;-76
2022/06/17 13:39:28;;;;;;;1.20;1.20;;;;;;;;;;5085913;28;20200;-75
2022/06/17 13:41:56;;;;;;;4.05;1.60;;;;;;;;;;5086941;28;20822;-75
2022/06/17 13:44:40;;;;;;;2.35;1.42;;;;;;;;;;5085951;28;20631;-74
2022/06/17 13:47:13;;;;;;;2.42;2.00;;;;;;;;;;5088310;28;20718;-73
2022/06/17 13:49:59;;;;;;;1.95;1.70;;;;;;;;;;5090688;28;20181;-75
2022/06/17 13:52:26;;;;;;;1.38;1.27;;;;;;;;;;5091838;28;20228;-76
2022/06/17 13:55:00;;;;;;;1.17;1.17;;;;;;;;;;5091802;28;20211;-76
2022/06/17 13:57:30;;;;;;;1.20;1.20;;;;;;;;;;5090842;28;20204;-72
2022/06/17 14:00:17;;;;;;;4.47;1.40;;;;;;;;;;5090339;28;20631;-75
2022/06/17 14:02:56;;;;;;;1.13;1.00;;;;;;;;;;5091216;28;20323;-76
2022/06/17 14:05:33;;;;;;;2.15;1.20;;;;;;;;;;5092591;28;20232;-74
2022/06/17 14:08:19;;;;;;;1.65;1.38;;;;;;;;;;5092875;28;20201;-77
2022/06/17 14:10:46;;;;;;;1.35;1.20;;;;;;;;;;5093447;28;20211;-77
2022/06/17 14:13:16;;;;;;;1.63;1.25;;;;;;;;;;5093048;28;20705;-76
2022/06/17 14:15:51;;;;;;;1.50;1.35;;;;;;;;;;5092703;28;20201;-75
2022/06/17 14:18:21;;;;;;;1.70;1.20;;;;;;;;;;5092081;28;20289;-76
2022/06/17 14:20:57;;;;;;;1.27;1.20;;;;;;;;;;5092203;28;20224;-77
2022/06/17 14:23:28;;;;;;;1.45;1.35;;;;;;;;;;5090712;28;20216;-76
2022/06/17 14:26:01;;;;;;;9.32;5.53;;;;;;;;;;5089750;28;20470;-74
2022/06/17 14:28:37;;;;;;;5.68;4.10;;;;;;;;;;5090017;28;20220;-75
2022/06/17 14:31:13;;;;;;;6.40;4.80;;;;;;;;;;5089612;28;20542;-73
2022/06/17 14:33:58;;;;;;;3.83;2.90;;;;;;;;;;5090458;28;20225;-76
2022/06/17 14:36:42;;;;;;;1.23;1.05;;;;;;;;;;5090932;28;20252;-76
2022/06/17 14:39:22;;;;;;;1.17;1.13;;;;;;;;;;5092351;28;20209;-75
2022/06/17 14:42:02;;;;;;;1.63;1.52;;;;;;;;;;5091985;28;20208;-75
2022/06/17 14:44:29;;;;;;;4.47;2.95;;;;;;;;;;5091637;28;20258;-76
2022/06/17 14:47:15;;;;;;;1.23;1.10;;;;;;;;;;5093122;28;20204;-76
2022/06/17 14:49:43;;;;;;;1.95;1.20;;;;;;;;;;5076545;28;20201;-76
2022/06/17 14:52:41;;;;;;;2.63;1.55;;;;;;;;;;5076640;28;20221;-76
2022/06/17 14:55:14;;;;;;;1.20;1.10;;;;;;;;;;5047339;28;20204;-76
2022/06/17 14:57:47;;;;;;;1.20;1.02;;;;;;;;;;5074871;28;20205;-76
2022/06/17 15:00:19;;;;;;;1.02;1.00;;;;;;;;;;5093145;28;20588;-75
2022/06/17 15:02:48;;;;;;;0.95;0.95;;;;;;;;;;5092896;28;20227;-77
2022/06/17 15:05:22;;;;;;;1.30;1.00;;;;;;;;;;5092929;28;20267;-77
2022/06/17 15:07:51;;;;;;;1.60;1.30;;;;;;;;;;5092260;28;20208;-77
2022/06/17 15:10:18;;;;;;;1.80;1.17;;;;;;;;;;5091802;28;20262;-77
2022/06/17 15:12:48;;;;;;;1.00;1.00;;;;;;;;;;5092012;28;20315;-75
2022/06/17 15:15:18;;;;;;;1.50;1.40;;;;;;;;;;5091976;28;20232;-74
2022/06/17 15:17:49;;;;;;;2.50;2.30;;;;;;;;;;5091691;28;20291;-77
2022/06/17 15:20:18;;;;;;;2.20;1.10;;;;;;;;;;5091062;28;20211;-74
2022/06/17 15:22:48;;;;;;;2.75;1.98;;;;;;;;;;5091531;28;20217;-76
2022/06/17 15:25:19;;;;;;;3.45;2.70;;;;;;;;;;5092003;28;20212;-77
2022/06/17 15:27:55;;;;;;;1.20;1.20;;;;;;;;;;5092206;28;20201;-76
2022/06/17 15:30:28;;;;;;;2.20;1.85;;;;;;;;;;5074039;28;20245;-75
2022/06/17 15:32:57;;;;;;;1.38;1.10;;;;;;;;;;5091560;28;20228;-76